createdAt,value
2019-04-27T00:00:45.786Z,20.75
2019-04-27T00:03:16.792Z,20.53
2019-04-27T00:05:47.985Z,20.48
2019-04-27T00:08:35.130Z,20.31
2019-04-27T00:11:08.627Z,20.22
2019-04-27T00:13:40.727Z,20.10
2019-04-27T00:16:13.344Z,19.96
2019-04-27T00:18:45.547Z,19.76
2019-04-27T00:21:16.878Z,19.70
2019-04-27T00:23:49.215Z,19.56
2019-04-27T00:26:18.682Z,19.41
2019-04-27T00:28:47.978Z,19.29
2019-04-27T00:31:17.403Z,19.23
2019-04-27T00:33:46.734Z,19.16
2019-04-27T00:36:17.666Z,19.15
2019-04-27T00:38:54.520Z,19.08
2019-04-27T00:41:24.258Z,18.96
2019-04-27T00:43:53.611Z,18.91
2019-04-27T00:46:23.498Z,18.90
2019-04-27T00:48:53.404Z,18.87
2019-04-27T00:51:23.235Z,18.86
2019-04-27T00:53:53.721Z,18.81
2019-04-27T00:56:42.940Z,18.79
2019-04-27T00:59:30.296Z,18.81
2019-04-27T01:02:19.629Z,18.83
2019-04-27T01:04:49.036Z,18.77
2019-04-27T01:07:18.398Z,18.79
2019-04-27T01:09:47.690Z,18.80
2019-04-27T01:12:18.867Z,18.77
2019-04-27T01:14:48.731Z,18.74
2019-04-27T01:17:18.903Z,18.72
2019-04-27T01:19:49.388Z,18.69
2019-04-27T01:22:18.957Z,18.68
2019-04-27T01:24:49.236Z,18.66
2019-04-27T01:27:20.261Z,18.65
2019-04-27T01:29:50.250Z,18.66
2019-04-27T01:32:20.638Z,18.67
2019-04-27T01:34:50.457Z,18.65
2019-04-27T01:37:21.199Z,18.66
2019-04-27T01:39:50.660Z,18.65
2019-04-27T01:42:20.131Z,18.64
2019-04-27T01:44:51.096Z,18.64
2019-04-27T01:47:20.560Z,18.64
2019-04-27T01:49:50.227Z,18.65
2019-04-27T01:52:19.659Z,18.67
2019-04-27T01:54:49.551Z,18.65
2019-04-27T01:57:19.512Z,18.62
2019-04-27T01:59:49.069Z,18.63
2019-04-27T02:02:39.373Z,18.63
2019-04-27T02:05:29.117Z,18.63
2019-04-27T02:07:59.227Z,18.66
2019-04-27T02:10:29.284Z,18.66
2019-04-27T02:12:58.872Z,18.66
2019-04-27T02:15:29.318Z,18.67
2019-04-27T02:17:59.700Z,18.68
2019-04-27T02:20:30.109Z,18.70
2019-04-27T02:23:01.189Z,18.67
2019-04-27T02:25:30.617Z,18.68
2019-04-27T02:28:01.590Z,18.68
2019-04-27T02:30:49.860Z,18.69
2019-04-27T02:33:23.289Z,18.67
2019-04-27T02:35:52.642Z,18.65
2019-04-27T02:38:21.976Z,18.62
2019-04-27T02:40:54.085Z,18.62
2019-04-27T02:43:29.603Z,18.63
2019-04-27T02:46:00.428Z,18.62
2019-04-27T02:48:30.103Z,18.65
2019-04-27T02:51:03.690Z,18.64
2019-04-27T02:53:53.034Z,18.66
2019-04-27T02:56:22.630Z,18.68
2019-04-27T02:58:52.437Z,18.67
2019-04-27T03:01:23.632Z,18.67
2019-04-27T03:03:53.041Z,18.69
2019-04-27T03:06:22.414Z,18.69
2019-04-27T03:08:54.052Z,18.70
2019-04-27T03:11:23.745Z,18.74
2019-04-27T03:14:03.486Z,18.74
2019-04-27T03:16:49.679Z,18.81
2019-04-27T03:19:21.885Z,18.86
2019-04-27T03:21:55.960Z,18.95
2019-04-27T03:24:43.462Z,18.89
2019-04-27T03:27:14.593Z,18.89
2019-04-27T03:29:44.156Z,18.94
2019-04-27T03:32:13.681Z,18.99
2019-04-27T03:34:43.078Z,19.06
2019-04-27T03:37:12.428Z,19.08
2019-04-27T03:39:41.790Z,19.09
2019-04-27T03:42:12.078Z,19.11
2019-04-27T03:44:41.395Z,19.14
2019-04-27T03:47:12.783Z,19.15
2019-04-27T03:49:42.019Z,19.15
2019-04-27T03:52:12.998Z,19.14
2019-04-27T03:54:46.702Z,19.16
2019-04-27T03:57:20.688Z,19.16
2019-04-27T04:00:03.913Z,19.15
2019-04-27T04:02:33.296Z,19.15
2019-04-27T04:05:02.676Z,19.19
2019-04-27T04:07:32.038Z,19.19
2019-04-27T04:10:01.443Z,19.22
2019-04-27T04:12:35.127Z,19.21
2019-04-27T04:15:09.983Z,19.21
2019-04-27T04:17:40.791Z,19.22
2019-04-27T04:20:11.274Z,19.24
2019-04-27T04:22:40.654Z,19.25
2019-04-27T04:25:10.915Z,19.26
2019-04-27T04:27:42.743Z,19.25
2019-04-27T04:30:12.720Z,19.26
2019-04-27T04:32:42.032Z,19.24
2019-04-27T04:35:22.620Z,19.25
2019-04-27T04:37:52.859Z,19.28
2019-04-27T04:40:24.668Z,19.31
2019-04-27T04:43:00.348Z,19.31
2019-04-27T04:45:49.734Z,19.32
2019-04-27T04:48:20.214Z,19.28
2019-04-27T04:50:50.193Z,19.25
2019-04-27T04:53:20.590Z,19.20
2019-04-27T04:55:50.456Z,19.22
2019-04-27T04:58:20.974Z,19.16
2019-04-27T05:00:50.576Z,19.14
2019-04-27T05:03:21.888Z,19.08
2019-04-27T05:05:51.034Z,19.05
2019-04-27T05:08:21.763Z,19.07
2019-04-27T05:10:59.656Z,19.03
2019-04-27T05:13:34.178Z,19.01
2019-04-27T05:16:09.086Z,19.01
2019-04-27T05:18:46.139Z,19.00
2019-04-27T05:21:25.650Z,18.99
2019-04-27T05:24:00.749Z,18.98
2019-04-27T05:26:34.014Z,18.94
2019-04-27T05:29:09.238Z,18.93
2019-04-27T05:31:44.987Z,18.88
2019-04-27T05:34:19.801Z,18.92
2019-04-27T05:36:54.655Z,18.98
2019-04-27T05:39:29.941Z,19.04
2019-04-27T05:42:04.914Z,19.08
2019-04-27T05:44:54.033Z,19.11
2019-04-27T05:47:31.609Z,19.05
2019-04-27T05:50:06.384Z,19.07
2019-04-27T05:52:41.012Z,19.05
2019-04-27T05:55:15.420Z,18.98
2019-04-27T05:57:50.236Z,18.98
2019-04-27T06:00:24.677Z,19.06
2019-04-27T06:02:59.406Z,19.18
2019-04-27T06:05:33.441Z,19.29
2019-04-27T06:08:08.746Z,19.42
2019-04-27T06:10:38.749Z,19.43
2019-04-27T06:13:08.482Z,19.25
2019-04-27T06:15:39.328Z,19.37
2019-04-27T06:18:09.304Z,19.41
2019-04-27T06:20:50.451Z,19.44
2019-04-27T06:23:09.761Z,19.35
2019-04-27T06:25:39.434Z,19.35
2019-04-27T06:28:09.259Z,19.33
2019-04-27T06:30:39.218Z,19.25
2019-04-27T06:33:10.044Z,19.18
2019-04-27T06:35:39.921Z,19.13
2019-04-27T06:38:11.410Z,19.26
2019-04-27T06:40:40.423Z,19.23
2019-04-27T06:43:09.727Z,19.27
2019-04-27T06:45:39.072Z,19.42
2019-04-27T06:48:10.074Z,19.55
2019-04-27T06:50:40.819Z,19.61
2019-04-27T06:53:10.144Z,19.76
2019-04-27T06:55:41.018Z,19.96
2019-04-27T06:58:11.751Z,20.03
2019-04-27T07:00:42.613Z,20.10
2019-04-27T07:03:11.893Z,20.09
2019-04-27T07:05:41.266Z,20.09
2019-04-27T07:08:12.318Z,20.10
2019-04-27T07:10:41.613Z,20.14
2019-04-27T07:13:12.544Z,20.23
2019-04-27T07:15:41.866Z,20.27
2019-04-27T07:18:11.312Z,20.38
2019-04-27T07:20:40.613Z,20.43
2019-04-27T07:23:10.006Z,20.49
2019-04-27T07:25:39.290Z,20.62
2019-04-27T07:28:09.171Z,20.66
2019-04-27T07:30:38.880Z,20.85
2019-04-27T07:33:08.792Z,20.88
2019-04-27T07:35:39.295Z,20.88
2019-04-27T07:38:09.929Z,20.90
2019-04-27T07:40:41.798Z,20.94
2019-04-27T07:43:21.316Z,20.83
2019-04-27T07:45:50.762Z,20.82
2019-04-27T07:48:19.999Z,20.67
2019-04-27T07:50:49.367Z,20.69
2019-04-27T07:53:19.370Z,20.84
2019-04-27T07:55:49.518Z,20.83
2019-04-27T07:58:20.525Z,20.95
2019-04-27T08:00:51.086Z,20.88
2019-04-27T08:03:20.671Z,20.90
2019-04-27T08:05:49.909Z,21.04
2019-04-27T08:08:21.625Z,21.13
2019-04-27T08:10:50.975Z,21.20
2019-04-27T08:13:20.380Z,21.33
2019-04-27T08:15:49.762Z,21.41
2019-04-27T08:18:19.115Z,21.43
2019-04-27T08:20:49.131Z,21.47
2019-04-27T08:23:19.560Z,21.57
2019-04-27T08:25:49.109Z,21.71
2019-04-27T08:28:23.314Z,21.91
2019-04-27T08:31:10.397Z,21.87
2019-04-27T08:33:39.697Z,21.80
2019-04-27T08:36:09.082Z,21.92
2019-04-27T08:38:38.978Z,22.11
2019-04-27T08:41:08.982Z,22.17
2019-04-27T08:43:39.132Z,22.01
2019-04-27T08:46:08.855Z,21.90
2019-04-27T08:48:39.273Z,21.96
2019-04-27T08:51:09.597Z,21.81
2019-04-27T08:53:39.821Z,21.83
2019-04-27T08:56:09.456Z,21.93
2019-04-27T08:58:38.771Z,21.96
2019-04-27T09:01:10.246Z,21.78
2019-04-27T09:03:39.505Z,21.71
2019-04-27T09:06:10.686Z,21.56
2019-04-27T09:08:44.694Z,21.72
2019-04-27T09:11:18.676Z,21.88
2019-04-27T09:13:50.953Z,21.91
2019-04-27T09:16:24.813Z,22.00
2019-04-27T09:18:55.800Z,22.12
2019-04-27T09:21:25.161Z,22.20
2019-04-27T09:23:54.545Z,22.39
2019-04-27T09:26:23.890Z,22.61
2019-04-27T09:28:53.269Z,22.62
2019-04-27T09:31:22.585Z,22.56
2019-04-27T09:33:51.818Z,22.68
2019-04-27T09:36:21.258Z,22.69
2019-04-27T09:38:50.482Z,22.30
2019-04-27T09:41:19.771Z,22.28
2019-04-27T09:43:49.176Z,22.35
2019-04-27T09:46:18.397Z,22.33
2019-04-27T09:48:47.770Z,22.11
2019-04-27T09:51:17.113Z,22.03
2019-04-27T09:53:46.470Z,21.94
2019-04-27T09:56:16.455Z,21.85
2019-04-27T09:58:47.103Z,22.01
2019-04-27T10:01:18.152Z,22.19
2019-04-27T10:03:47.750Z,22.27
2019-04-27T10:06:17.151Z,22.26
2019-04-27T10:08:49.586Z,22.35
2019-04-27T10:11:18.962Z,22.38
2019-04-27T10:13:49.467Z,22.38
2019-04-27T10:16:18.750Z,22.33
2019-04-27T10:18:48.106Z,22.30
2019-04-27T10:21:17.515Z,22.24
2019-04-27T10:23:47.108Z,21.98
2019-04-27T10:26:16.483Z,21.66
2019-04-27T10:28:45.910Z,21.15
2019-04-27T10:31:15.510Z,20.86
2019-04-27T10:33:45.878Z,20.47
2019-04-27T10:36:16.971Z,18.70
2019-04-27T10:38:47.841Z,18.07
2019-04-27T10:41:17.148Z,17.16
2019-04-27T10:43:46.437Z,16.67
2019-04-27T10:46:17.226Z,16.37
2019-04-27T10:48:46.511Z,15.89
2019-04-27T10:51:16.102Z,15.60
2019-04-27T10:53:46.869Z,15.34
2019-04-27T10:56:16.292Z,15.03
2019-04-27T10:58:45.754Z,15.06
2019-04-27T11:01:16.780Z,15.05
2019-04-27T11:04:05.988Z,14.97
2019-04-27T11:06:37.027Z,14.82
2019-04-27T11:09:11.673Z,14.89
2019-04-27T11:11:41.230Z,14.76
2019-04-27T11:14:10.830Z,14.73
2019-04-27T11:16:40.177Z,14.77
2019-04-27T11:19:09.541Z,14.73
2019-04-27T11:21:38.938Z,14.74
2019-04-27T11:24:08.295Z,14.71
2019-04-27T11:26:37.656Z,14.80
2019-04-27T11:29:07.263Z,14.93
2019-04-27T11:31:36.682Z,15.02
2019-04-27T11:34:06.690Z,15.10
2019-04-27T11:36:37.972Z,15.17
2019-04-27T11:39:12.628Z,15.27
2019-04-27T11:41:43.471Z,15.36
2019-04-27T11:44:13.049Z,15.33
2019-04-27T11:46:42.449Z,15.31
2019-04-27T11:49:11.737Z,15.27
2019-04-27T11:51:41.157Z,15.23
2019-04-27T11:54:10.472Z,15.23
2019-04-27T11:56:39.836Z,15.23
2019-04-27T11:59:09.196Z,15.23
2019-04-27T12:01:38.587Z,15.13
2019-04-27T12:04:07.961Z,15.09
2019-04-27T12:06:37.345Z,15.09
2019-04-27T12:09:07.144Z,15.05
2019-04-27T12:11:36.506Z,15.09
2019-04-27T12:14:06.283Z,15.03
2019-04-27T12:16:36.246Z,15.02
2019-04-27T12:19:06.545Z,14.95
2019-04-27T12:21:36.415Z,14.89
2019-04-27T12:24:05.893Z,14.86
2019-04-27T12:26:36.819Z,14.91
2019-04-27T12:29:07.803Z,14.93
2019-04-27T12:31:38.828Z,15.00
2019-04-27T12:34:08.194Z,15.08
2019-04-27T12:36:37.689Z,15.17
2019-04-27T12:39:12.817Z,15.44
2019-04-27T12:41:42.178Z,15.57
2019-04-27T12:44:11.644Z,15.61
2019-04-27T12:46:41.034Z,15.66
2019-04-27T12:49:10.692Z,15.91
2019-04-27T12:51:40.047Z,16.01
2019-04-27T12:54:11.006Z,16.02
2019-04-27T12:56:58.403Z,16.01
2019-04-27T12:59:46.686Z,15.79
2019-04-27T13:02:16.765Z,15.79
2019-04-27T13:04:46.671Z,15.94
2019-04-27T13:07:16.389Z,15.93
2019-04-27T13:09:46.114Z,16.02
2019-04-27T13:12:15.749Z,16.13
2019-04-27T13:14:45.737Z,16.24
2019-04-27T13:17:16.451Z,16.33
2019-04-27T13:19:45.854Z,16.48
2019-04-27T13:22:16.523Z,16.58
2019-04-27T13:24:46.141Z,16.68
2019-04-27T13:27:16.661Z,16.83
2019-04-27T13:29:46.668Z,16.95
2019-04-27T13:32:17.259Z,17.06
2019-04-27T13:34:46.644Z,17.13
2019-04-27T13:37:23.678Z,17.20
2019-04-27T13:40:05.996Z,17.22
2019-04-27T13:42:27.185Z,17.28
2019-04-27T13:44:56.778Z,17.57
2019-04-27T13:47:43.876Z,17.95
2019-04-27T13:50:21.030Z,18.10
2019-04-27T13:52:50.430Z,18.28
2019-04-27T13:55:19.780Z,18.20
2019-04-27T13:57:50.539Z,18.18
2019-04-27T14:00:21.293Z,18.28
2019-04-27T14:02:50.663Z,18.38
2019-04-27T14:05:19.960Z,18.03
2019-04-27T14:07:49.456Z,17.47
2019-04-27T14:10:20.389Z,17.19
2019-04-27T14:12:49.828Z,17.37
2019-04-27T14:15:19.586Z,17.55
2019-04-27T14:17:50.020Z,17.49
2019-04-27T14:20:19.497Z,17.00
2019-04-27T14:22:49.469Z,16.94
2019-04-27T14:25:20.509Z,16.71
2019-04-27T14:27:49.837Z,16.64
2019-04-27T14:30:19.709Z,16.69
2019-04-27T14:32:50.681Z,16.65
2019-04-27T14:35:20.009Z,16.58
2019-04-27T14:37:50.290Z,16.87
2019-04-27T14:40:19.773Z,17.13
2019-04-27T14:42:50.535Z,16.90
2019-04-27T14:45:20.144Z,17.19
2019-04-27T14:47:51.168Z,17.92
2019-04-27T14:50:20.559Z,18.31
2019-04-27T14:52:49.838Z,18.04
2019-04-27T14:55:19.268Z,18.17
2019-04-27T14:57:49.574Z,18.76
2019-04-27T15:00:21.041Z,19.17
2019-04-27T15:02:51.671Z,19.49
2019-04-27T15:05:21.332Z,19.58
2019-04-27T15:07:50.758Z,19.26
2019-04-27T15:10:20.161Z,18.61
2019-04-27T15:12:49.525Z,18.59
2019-04-27T15:15:28.352Z,18.97
2019-04-27T15:17:57.576Z,19.32
2019-04-27T15:20:32.863Z,19.19
2019-04-27T15:23:02.506Z,19.54
2019-04-27T15:25:34.980Z,18.64
2019-04-27T15:28:11.530Z,18.33
2019-04-27T15:30:52.309Z,18.69
2019-04-27T15:33:39.673Z,18.69
2019-04-27T15:36:22.647Z,18.65
2019-04-27T15:38:55.463Z,18.33
2019-04-27T15:41:28.894Z,18.34
2019-04-27T15:44:04.818Z,17.99
2019-04-27T15:46:33.649Z,17.85
2019-04-27T15:49:03.051Z,18.07
2019-04-27T15:51:32.205Z,18.08
2019-04-27T15:54:02.029Z,17.99
2019-04-27T15:56:35.225Z,17.90
2019-04-27T15:59:08.679Z,17.71
2019-04-27T16:01:39.588Z,17.66
2019-04-27T16:04:11.237Z,17.53
2019-04-27T16:06:42.803Z,17.52
2019-04-27T16:09:15.939Z,17.88
2019-04-27T16:11:50.146Z,17.98
2019-04-27T16:14:15.578Z,17.83
2019-04-27T16:16:44.890Z,18.20
2019-04-27T16:19:14.376Z,17.82
2019-04-27T16:21:47.072Z,17.69
2019-04-27T16:24:16.997Z,17.37
2019-04-27T16:26:46.330Z,17.32
2019-04-27T16:29:18.520Z,17.22
2019-04-27T16:31:48.248Z,17.14
2019-04-27T16:34:18.498Z,17.62
2019-04-27T16:36:48.027Z,17.99
2019-04-27T16:39:20.377Z,18.16
2019-04-27T16:41:50.362Z,18.13
2019-04-27T16:44:19.989Z,17.74
2019-04-27T16:46:49.424Z,17.55
2019-04-27T16:49:18.862Z,17.36
2019-04-27T16:51:49.264Z,17.31
2019-04-27T16:54:21.293Z,17.07
2019-04-27T16:57:00.054Z,16.92
2019-04-27T16:59:39.741Z,16.70
2019-04-27T17:01:53.506Z,16.62
2019-04-27T17:04:22.868Z,16.47
2019-04-27T17:06:52.313Z,16.41
2019-04-27T17:09:21.716Z,16.34
2019-04-27T17:11:51.854Z,16.21
2019-04-27T17:14:41.509Z,16.20
2019-04-27T17:17:28.287Z,16.22
2019-04-27T17:19:59.455Z,16.19
2019-04-27T17:22:28.804Z,16.14
2019-04-27T17:24:58.229Z,16.14
2019-04-27T17:27:38.275Z,16.20
2019-04-27T17:30:09.114Z,16.23
2019-04-27T17:32:43.020Z,16.07
2019-04-27T17:35:14.837Z,15.71
2019-04-27T17:37:43.613Z,15.38
2019-04-27T17:40:15.396Z,15.22
2019-04-27T17:42:44.099Z,14.83
2019-04-27T17:45:13.659Z,14.64
2019-04-27T17:47:43.106Z,14.47
2019-04-27T17:50:12.861Z,14.34
2019-04-27T17:52:42.278Z,14.04
2019-04-27T17:55:11.675Z,13.96
2019-04-27T17:57:41.041Z,13.89
2019-04-27T18:00:11.529Z,13.75
2019-04-27T18:02:42.505Z,13.67
2019-04-27T18:05:13.843Z,13.60
2019-04-27T18:07:44.353Z,13.53
2019-04-27T18:10:22.685Z,13.47
2019-04-27T18:12:48.787Z,13.44
2019-04-27T18:15:18.203Z,13.43
2019-04-27T18:17:52.046Z,13.42
2019-04-27T18:20:29.641Z,13.38
2019-04-27T18:23:08.870Z,13.38
2019-04-27T18:25:44.751Z,13.32
2019-04-27T18:28:19.036Z,13.29
2019-04-27T18:30:52.727Z,13.31
2019-04-27T18:33:22.313Z,13.24
2019-04-27T18:35:51.633Z,13.20
2019-04-27T18:38:21.084Z,13.16
2019-04-27T18:40:50.482Z,13.12
2019-04-27T18:43:19.863Z,13.00
2019-04-27T18:45:49.276Z,12.94
2019-04-27T18:48:22.880Z,12.94
2019-04-27T18:51:02.784Z,12.80
2019-04-27T18:53:33.804Z,12.73
2019-04-27T18:56:05.353Z,12.66
2019-04-27T18:58:34.306Z,12.47
2019-04-27T19:01:04.002Z,12.45
2019-04-27T19:03:33.231Z,12.37
2019-04-27T19:06:03.926Z,12.31
2019-04-27T19:08:33.347Z,12.23
2019-04-27T19:11:04.879Z,12.14
2019-04-27T19:13:33.774Z,12.05
2019-04-27T19:16:03.197Z,12.00
2019-04-27T19:18:32.560Z,11.96
2019-04-27T19:21:01.951Z,11.91
2019-04-27T19:23:31.279Z,11.83
2019-04-27T19:26:11.312Z,11.80
2019-04-27T19:28:42.356Z,11.75
2019-04-27T19:31:16.040Z,11.74
2019-04-27T19:33:45.499Z,11.70
2019-04-27T19:36:14.891Z,11.66
2019-04-27T19:38:44.290Z,11.65
2019-04-27T19:41:13.655Z,11.67
2019-04-27T19:43:42.978Z,11.68
2019-04-27T19:46:12.351Z,11.69
2019-04-27T19:48:41.764Z,11.71
2019-04-27T19:51:11.142Z,11.71
2019-04-27T19:53:40.458Z,11.66
2019-04-27T19:56:09.856Z,11.66
2019-04-27T19:58:40.844Z,11.67
2019-04-27T20:01:14.582Z,11.69
2019-04-27T20:03:44.640Z,11.69
2019-04-27T20:06:14.051Z,11.70
2019-04-27T20:08:45.045Z,11.69
2019-04-27T20:11:14.523Z,11.68
2019-04-27T20:13:48.583Z,11.67
2019-04-27T20:16:17.888Z,11.69
2019-04-27T20:18:47.340Z,11.67
2019-04-27T20:21:16.708Z,11.67
2019-04-27T20:23:46.003Z,11.66
2019-04-27T20:26:15.339Z,11.68
2019-04-27T20:28:44.775Z,11.69
2019-04-27T20:31:14.283Z,11.66
2019-04-27T20:33:43.700Z,11.67
2019-04-27T20:36:13.062Z,11.68
2019-04-27T20:38:42.354Z,11.69
2019-04-27T20:41:11.755Z,11.71
2019-04-27T20:43:42.060Z,11.69
2019-04-27T20:46:11.918Z,11.68
2019-04-27T20:48:41.639Z,11.66
2019-04-27T20:51:11.503Z,11.63
2019-04-27T20:53:42.646Z,11.65
2019-04-27T20:56:12.060Z,11.69
2019-04-27T20:58:41.424Z,11.68
2019-04-27T21:01:10.764Z,11.68
2019-04-27T21:03:47.745Z,11.69
2019-04-27T21:06:18.759Z,11.70
2019-04-27T21:08:48.124Z,11.72
2019-04-27T21:11:17.430Z,11.71
2019-04-27T21:13:46.714Z,11.71
2019-04-27T21:16:16.218Z,11.69
2019-04-27T21:18:45.597Z,11.67
2019-04-27T21:21:15.136Z,11.67
2019-04-27T21:23:44.611Z,11.64
2019-04-27T21:26:13.980Z,11.63
2019-04-27T21:28:43.495Z,11.62
2019-04-27T21:31:12.952Z,11.64
2019-04-27T21:33:42.285Z,11.63
2019-04-27T21:36:11.850Z,11.60
2019-04-27T21:38:42.948Z,11.57
2019-04-27T21:41:12.555Z,11.55
2019-04-27T21:43:43.723Z,11.57
2019-04-27T21:46:12.866Z,11.56
2019-04-27T21:48:42.211Z,11.57
2019-04-27T21:51:11.939Z,11.54
2019-04-27T21:53:51.359Z,11.54
2019-04-27T21:56:22.050Z,11.56
2019-04-27T21:58:51.379Z,11.57
2019-04-27T22:01:23.415Z,11.58
2019-04-27T22:03:52.913Z,11.58
2019-04-27T22:06:22.304Z,11.59
2019-04-27T22:08:51.708Z,11.59
2019-04-27T22:11:21.901Z,11.58
2019-04-27T22:13:52.022Z,11.54
2019-04-27T22:16:21.505Z,11.51
2019-04-27T22:18:51.903Z,11.52
2019-04-27T22:21:21.842Z,11.53
2019-04-27T22:23:52.903Z,11.52
2019-04-27T22:26:22.409Z,11.55
2019-04-27T22:28:52.163Z,11.54
2019-04-27T22:31:21.859Z,11.57
2019-04-27T22:33:54.418Z,11.55
2019-04-27T22:36:22.159Z,11.57
2019-04-27T22:38:52.122Z,11.60
2019-04-27T22:41:32.069Z,11.60
2019-04-27T22:44:05.998Z,11.55
2019-04-27T22:46:41.004Z,11.52
2019-04-27T22:49:10.946Z,11.55
2019-04-27T22:51:41.172Z,11.56
2019-04-27T22:54:11.763Z,11.57
2019-04-27T22:56:42.894Z,11.59
2019-04-27T22:59:21.345Z,11.60
2019-04-27T23:01:55.599Z,11.58
2019-04-27T23:04:32.370Z,11.59
2019-04-27T23:07:00.662Z,11.56
2019-04-27T23:09:31.494Z,11.54
2019-04-27T23:12:01.875Z,11.53
2019-04-27T23:14:31.399Z,11.54
2019-04-27T23:17:19.008Z,11.51
2019-04-27T23:19:48.638Z,11.50
2019-04-27T23:22:18.024Z,11.46
2019-04-27T23:24:47.343Z,11.45
2019-04-27T23:27:16.701Z,11.47
2019-04-27T23:29:46.151Z,11.48
2019-04-27T23:32:21.435Z,11.50
2019-04-27T23:34:51.461Z,11.49
2019-04-27T23:37:21.050Z,11.48
2019-04-27T23:39:50.499Z,11.49
2019-04-27T23:42:21.625Z,11.49
2019-04-27T23:44:51.888Z,11.45
2019-04-27T23:47:21.359Z,11.44
2019-04-27T23:49:50.910Z,11.46
2019-04-27T23:52:24.802Z,11.45
2019-04-27T23:54:54.133Z,11.39
2019-04-27T23:57:23.572Z,11.49
2019-04-27T23:59:52.856Z,11.48
